sensor_id;sensor_type;location;lat;lon;timestamp;P1;durP1;ratioP1;P2;durP2;ratioP2
57667;SDS011;43499;52.366;12.912;2022-11-20T00:00:15;14.88;;;9.55;;
57667;SDS011;43499;52.366;12.912;2022-11-20T00:01:18;17.40;;;9.70;;
57667;SDS011;43499;52.366;12.912;2022-11-20T00:02:21;16.50;;;9.20;;
57667;SDS011;43499;52.366;12.912;2022-11-20T00:03:22;15.52;;;9.02;;
57667;SDS011;43499;52.366;12.912;2022-11-20T00:04:23;18.27;;;9.77;;
57667;SDS011;43499;52.366;12.912;2022-11-20T00:05:24;19.40;;;10.55;;
57667;SDS011;43499;52.366;12.912;2022-11-20T00:06:26;16.95;;;9.60;;
57667;SDS011;43499;52.366;12.912;2022-11-20T00:07:28;16.67;;;9.35;;
57667;SDS011;43499;52.366;12.912;2022-11-20T00:08:29;21.23;;;10.73;;
57667;SDS011;43499;52.366;12.912;2022-11-20T00:09:30;15.23;;;9.38;;
57667;SDS011;43499;52.366;12.912;2022-11-20T00:10:31;19.85;;;9.35;;
57667;SDS011;43499;52.366;12.912;2022-11-20T00:11:32;17.23;;;9.65;;
57667;SDS011;43499;52.366;12.912;2022-11-20T00:12:33;16.20;;;9.30;;
57667;SDS011;43499;52.366;12.912;2022-11-20T00:13:34;18.33;;;11.27;;
57667;SDS011;43499;52.366;12.912;2022-11-20T00:14:35;17.75;;;9.82;;
57667;SDS011;43499;52.366;12.912;2022-11-20T00:15:36;16.67;;;9.38;;
57667;SDS011;43499;52.366;12.912;2022-11-20T00:16:37;16.80;;;8.05;;
57667;SDS011;43499;52.366;12.912;2022-11-20T00:17:38;17.92;;;10.50;;
57667;SDS011;43499;52.366;12.912;2022-11-20T00:18:39;22.77;;;10.52;;
57667;SDS011;43499;52.366;12.912;2022-11-20T00:19:40;20.77;;;10.63;;
57667;SDS011;43499;52.366;12.912;2022-11-20T00:20:41;16.10;;;10.00;;
57667;SDS011;43499;52.366;12.912;2022-11-20T00:21:42;17.10;;;10.43;;
57667;SDS011;43499;52.366;12.912;2022-11-20T00:22:43;15.88;;;9.52;;
57667;SDS011;43499;52.366;12.912;2022-11-20T00:23:44;15.70;;;9.05;;
57667;SDS011;43499;52.366;12.912;2022-11-20T00:24:46;18.58;;;9.30;;
57667;SDS011;43499;52.366;12.912;2022-11-20T00:25:47;16.30;;;10.15;;
57667;SDS011;43499;52.366;12.912;2022-11-20T00:26:48;17.80;;;9.82;;
57667;SDS011;43499;52.366;12.912;2022-11-20T00:27:50;16.13;;;9.90;;
57667;SDS011;43499;52.366;12.912;2022-11-20T00:28:52;19.58;;;9.60;;
57667;SDS011;43499;52.366;12.912;2022-11-20T00:30:02;18.98;;;10.30;;
57667;SDS011;43499;52.366;12.912;2022-11-20T00:31:07;15.95;;;9.30;;
57667;SDS011;43499;52.366;12.912;2022-11-20T00:32:10;16.77;;;9.07;;
57667;SDS011;43499;52.366;12.912;2022-11-20T00:33:11;19.90;;;10.85;;
57667;SDS011;43499;52.366;12.912;2022-11-20T00:34:12;19.05;;;10.50;;
57667;SDS011;43499;52.366;12.912;2022-11-20T00:35:13;21.52;;;10.73;;
57667;SDS011;43499;52.366;12.912;2022-11-20T00:36:18;19.35;;;9.43;;
57667;SDS011;43499;52.366;12.912;2022-11-20T00:37:21;16.67;;;9.80;;
57667;SDS011;43499;52.366;12.912;2022-11-20T00:38:22;15.98;;;10.02;;
57667;SDS011;43499;52.366;12.912;2022-11-20T00:39:23;15.07;;;9.75;;
57667;SDS011;43499;52.366;12.912;2022-11-20T00:40:24;16.58;;;10.00;;
57667;SDS011;43499;52.366;12.912;2022-11-20T00:41:26;21.70;;;10.85;;
57667;SDS011;43499;52.366;12.912;2022-11-20T00:42:28;18.92;;;10.35;;
57667;SDS011;43499;52.366;12.912;2022-11-20T00:43:29;16.23;;;9.60;;
57667;SDS011;43499;52.366;12.912;2022-11-20T00:44:30;15.70;;;9.85;;
57667;SDS011;43499;52.366;12.912;2022-11-20T00:45:31;18.17;;;9.95;;
57667;SDS011;43499;52.366;12.912;2022-11-20T00:46:32;21.60;;;10.23;;
57667;SDS011;43499;52.366;12.912;2022-11-20T00:47:34;20.08;;;9.93;;
57667;SDS011;43499;52.366;12.912;2022-11-20T00:48:35;18.67;;;10.32;;
57667;SDS011;43499;52.366;12.912;2022-11-20T00:49:36;19.20;;;10.82;;
57667;SDS011;43499;52.366;12.912;2022-11-20T00:50:37;16.30;;;10.02;;
57667;SDS011;43499;52.366;12.912;2022-11-20T00:51:38;18.65;;;10.57;;
57667;SDS011;43499;52.366;12.912;2022-11-20T00:52:39;18.83;;;10.68;;
57667;SDS011;43499;52.366;12.912;2022-11-20T00:53:40;20.83;;;11.07;;
57667;SDS011;43499;52.366;12.912;2022-11-20T00:54:41;17.02;;;10.00;;
57667;SDS011;43499;52.366;12.912;2022-11-20T00:55:42;20.55;;;10.25;;
57667;SDS011;43499;52.366;12.912;2022-11-20T00:56:44;17.77;;;9.70;;
57667;SDS011;43499;52.366;12.912;2022-11-20T00:57:45;18.00;;;10.07;;
57667;SDS011;43499;52.366;12.912;2022-11-20T00:58:47;15.77;;;9.88;;
57667;SDS011;43499;52.366;12.912;2022-11-20T00:59:49;19.42;;;10.52;;
57667;SDS011;43499;52.366;12.912;2022-11-20T01:00:50;19.40;;;9.90;;
57667;SDS011;43499;52.366;12.912;2022-11-20T01:01:51;19.02;;;10.00;;
57667;SDS011;43499;52.366;12.912;2022-11-20T01:02:52;18.67;;;10.95;;
57667;SDS011;43499;52.366;12.912;2022-11-20T01:03:57;17.23;;;9.88;;
57667;SDS011;43499;52.366;12.912;2022-11-20T01:04:59;17.02;;;10.32;;
57667;SDS011;43499;52.366;12.912;2022-11-20T01:06:04;20.33;;;10.98;;
57667;SDS011;43499;52.366;12.912;2022-11-20T01:07:07;20.67;;;11.40;;
57667;SDS011;43499;52.366;12.912;2022-11-20T01:08:08;22.00;;;9.95;;
57667;SDS011;43499;52.366;12.912;2022-11-20T01:09:10;19.30;;;10.85;;
57667;SDS011;43499;52.366;12.912;2022-11-20T01:10:13;18.00;;;10.90;;
57667;SDS011;43499;52.366;12.912;2022-11-20T01:11:18;18.92;;;9.60;;
57667;SDS011;43499;52.366;12.912;2022-11-20T01:12:21;17.25;;;9.02;;
57667;SDS011;43499;52.366;12.912;2022-11-20T01:13:22;19.38;;;10.38;;
57667;SDS011;43499;52.366;12.912;2022-11-20T01:14:39;21.33;;;11.23;;
57667;SDS011;43499;52.366;12.912;2022-11-20T01:15:40;16.00;;;9.90;;
57667;SDS011;43499;52.366;12.912;2022-11-20T01:16:42;16.75;;;9.82;;
57667;SDS011;43499;52.366;12.912;2022-11-20T01:17:45;20.77;;;10.48;;
57667;SDS011;43499;52.366;12.912;2022-11-20T01:18:47;18.13;;;9.55;;
57667;SDS011;43499;52.366;12.912;2022-11-20T01:19:49;18.27;;;10.45;;
57667;SDS011;43499;52.366;12.912;2022-11-20T01:20:51;17.10;;;9.88;;
57667;SDS011;43499;52.366;12.912;2022-11-20T01:21:53;13.02;;;8.43;;
57667;SDS011;43499;52.366;12.912;2022-11-20T01:22:54;21.67;;;10.45;;
57667;SDS011;43499;52.366;12.912;2022-11-20T01:23:56;18.30;;;10.73;;
57667;SDS011;43499;52.366;12.912;2022-11-20T01:24:57;20.15;;;10.65;;
57667;SDS011;43499;52.366;12.912;2022-11-20T01:26:02;16.63;;;10.13;;
57667;SDS011;43499;52.366;12.912;2022-11-20T01:27:05;18.02;;;10.32;;
57667;SDS011;43499;52.366;12.912;2022-11-20T01:28:06;18.25;;;10.13;;
57667;SDS011;43499;52.366;12.912;2022-11-20T01:29:09;20.00;;;12.02;;
57667;SDS011;43499;52.366;12.912;2022-11-20T01:30:14;20.92;;;10.57;;
57667;SDS011;43499;52.366;12.912;2022-11-20T01:31:20;19.05;;;10.32;;
57667;SDS011;43499;52.366;12.912;2022-11-20T01:32:21;17.48;;;9.43;;
57667;SDS011;43499;52.366;12.912;2022-11-20T01:33:23;16.67;;;9.88;;
57667;SDS011;43499;52.366;12.912;2022-11-20T01:34:24;18.02;;;9.70;;
57667;SDS011;43499;52.366;12.912;2022-11-20T01:35:25;18.42;;;11.13;;
57667;SDS011;43499;52.366;12.912;2022-11-20T01:36:28;21.20;;;10.57;;
57667;SDS011;43499;52.366;12.912;2022-11-20T01:37:30;17.70;;;10.07;;
57667;SDS011;43499;52.366;12.912;2022-11-20T01:38:31;18.60;;;10.23;;
57667;SDS011;43499;52.366;12.912;2022-11-20T01:39:32;19.60;;;10.98;;
57667;SDS011;43499;52.366;12.912;2022-11-20T01:40:33;20.90;;;10.73;;
57667;SDS011;43499;52.366;12.912;2022-11-20T01:41:34;20.40;;;10.35;;
57667;SDS011;43499;52.366;12.912;2022-11-20T01:42:58;18.88;;;10.07;;
57667;SDS011;43499;52.366;12.912;2022-11-20T01:44:39;17.80;;;9.85;;
57667;SDS011;43499;52.366;12.912;2022-11-20T01:46:05;19.30;;;11.00;;
57667;SDS011;43499;52.366;12.912;2022-11-20T01:47:38;17.48;;;9.68;;
57667;SDS011;43499;52.366;12.912;2022-11-20T01:51:44;19.45;;;10.30;;
57667;SDS011;43499;52.366;12.912;2022-11-20T01:52:54;21.67;;;10.90;;
57667;SDS011;43499;52.366;12.912;2022-11-20T01:53:58;20.45;;;10.73;;
57667;SDS011;43499;52.366;12.912;2022-11-20T01:55:09;20.63;;;10.95;;
57667;SDS011;43499;52.366;12.912;2022-11-20T01:56:15;19.05;;;10.15;;
57667;SDS011;43499;52.366;12.912;2022-11-20T01:57:17;19.38;;;10.93;;
57667;SDS011;43499;52.366;12.912;2022-11-20T01:58:20;20.25;;;11.20;;
57667;SDS011;43499;52.366;12.912;2022-11-20T01:59:25;17.42;;;10.25;;
57667;SDS011;43499;52.366;12.912;2022-11-20T02:00:29;18.85;;;10.55;;
57667;SDS011;43499;52.366;12.912;2022-11-20T02:01:30;21.73;;;10.85;;
57667;SDS011;43499;52.366;12.912;2022-11-20T02:02:31;17.83;;;9.95;;
57667;SDS011;43499;52.366;12.912;2022-11-20T02:03:32;21.02;;;11.00;;
57667;SDS011;43499;52.366;12.912;2022-11-20T02:04:33;22.20;;;12.15;;
57667;SDS011;43499;52.366;12.912;2022-11-20T02:05:52;20.98;;;11.20;;
57667;SDS011;43499;52.366;12.912;2022-11-20T02:08:06;18.80;;;10.68;;
57667;SDS011;43499;52.366;12.912;2022-11-20T02:09:07;21.15;;;10.82;;
57667;SDS011;43499;52.366;12.912;2022-11-20T02:10:09;22.83;;;12.00;;
57667;SDS011;43499;52.366;12.912;2022-11-20T02:11:10;22.35;;;11.57;;
57667;SDS011;43499;52.366;12.912;2022-11-20T02:12:13;17.67;;;10.82;;
57667;SDS011;43499;52.366;12.912;2022-11-20T02:13:34;20.17;;;11.27;;
57667;SDS011;43499;52.366;12.912;2022-11-20T02:15:45;22.38;;;10.27;;
57667;SDS011;43499;52.366;12.912;2022-11-20T02:16:48;23.05;;;10.30;;
57667;SDS011;43499;52.366;12.912;2022-11-20T02:17:50;21.48;;;11.52;;
57667;SDS011;43499;52.366;12.912;2022-11-20T02:18:51;22.13;;;9.88;;
57667;SDS011;43499;52.366;12.912;2022-11-20T02:19:54;18.30;;;9.88;;
57667;SDS011;43499;52.366;12.912;2022-11-20T02:21:06;16.33;;;9.55;;
57667;SDS011;43499;52.366;12.912;2022-11-20T02:22:21;20.35;;;10.88;;
57667;SDS011;43499;52.366;12.912;2022-11-20T02:23:39;20.00;;;10.77;;
57667;SDS011;43499;52.366;12.912;2022-11-20T02:25:00;17.27;;;9.20;;
57667;SDS011;43499;52.366;12.912;2022-11-20T02:26:04;21.52;;;10.27;;
57667;SDS011;43499;52.366;12.912;2022-11-20T02:27:10;22.98;;;11.60;;
57667;SDS011;43499;52.366;12.912;2022-11-20T02:28:13;22.25;;;11.05;;
57667;SDS011;43499;52.366;12.912;2022-11-20T02:29:16;21.92;;;10.68;;
57667;SDS011;43499;52.366;12.912;2022-11-20T02:30:20;19.08;;;10.82;;
57667;SDS011;43499;52.366;12.912;2022-11-20T02:31:21;18.15;;;10.73;;
57667;SDS011;43499;52.366;12.912;2022-11-20T02:32:24;18.80;;;11.35;;
57667;SDS011;43499;52.366;12.912;2022-11-20T02:33:27;21.83;;;12.23;;
57667;SDS011;43499;52.366;12.912;2022-11-20T02:34:28;20.13;;;10.27;;
57667;SDS011;43499;52.366;12.912;2022-11-20T02:36:30;20.83;;;11.05;;
57667;SDS011;43499;52.366;12.912;2022-11-20T02:37:34;19.80;;;11.13;;
57667;SDS011;43499;52.366;12.912;2022-11-20T02:38:39;22.33;;;12.23;;
57667;SDS011;43499;52.366;12.912;2022-11-20T02:39:40;23.25;;;11.85;;
57667;SDS011;43499;52.366;12.912;2022-11-20T02:40:42;22.70;;;11.55;;
57667;SDS011;43499;52.366;12.912;2022-11-20T02:41:43;17.65;;;9.85;;
57667;SDS011;43499;52.366;12.912;2022-11-20T02:42:44;22.65;;;11.05;;
57667;SDS011;43499;52.366;12.912;2022-11-20T02:43:45;20.85;;;11.93;;
57667;SDS011;43499;52.366;12.912;2022-11-20T02:44:46;21.00;;;12.45;;
57667;SDS011;43499;52.366;12.912;2022-11-20T02:45:47;20.45;;;11.07;;
57667;SDS011;43499;52.366;12.912;2022-11-20T02:46:49;23.83;;;12.75;;
57667;SDS011;43499;52.366;12.912;2022-11-20T02:47:50;20.75;;;11.60;;
57667;SDS011;43499;52.366;12.912;2022-11-20T02:48:51;21.80;;;11.77;;
57667;SDS011;43499;52.366;12.912;2022-11-20T02:49:53;23.58;;;10.63;;
57667;SDS011;43499;52.366;12.912;2022-11-20T02:50:54;24.92;;;11.75;;
57667;SDS011;43499;52.366;12.912;2022-11-20T02:51:55;23.10;;;11.63;;
57667;SDS011;43499;52.366;12.912;2022-11-20T02:52:56;21.58;;;12.15;;
57667;SDS011;43499;52.366;12.912;2022-11-20T02:53:57;21.42;;;12.07;;
57667;SDS011;43499;52.366;12.912;2022-11-20T02:54:58;18.65;;;11.15;;
57667;SDS011;43499;52.366;12.912;2022-11-20T02:55:59;17.73;;;10.40;;
57667;SDS011;43499;52.366;12.912;2022-11-20T02:57:00;18.50;;;10.63;;
57667;SDS011;43499;52.366;12.912;2022-11-20T02:58:01;22.50;;;12.07;;
57667;SDS011;43499;52.366;12.912;2022-11-20T02:59:02;24.33;;;11.60;;
57667;SDS011;43499;52.366;12.912;2022-11-20T03:00:04;21.63;;;12.13;;
57667;SDS011;43499;52.366;12.912;2022-11-20T03:01:05;19.73;;;10.25;;
57667;SDS011;43499;52.366;12.912;2022-11-20T03:02:06;21.95;;;10.40;;
57667;SDS011;43499;52.366;12.912;2022-11-20T03:03:07;21.85;;;11.77;;
57667;SDS011;43499;52.366;12.912;2022-11-20T03:04:08;21.38;;;9.98;;
57667;SDS011;43499;52.366;12.912;2022-11-20T03:05:09;20.48;;;11.15;;
57667;SDS011;43499;52.366;12.912;2022-11-20T03:06:11;21.15;;;11.60;;
57667;SDS011;43499;52.366;12.912;2022-11-20T03:07:12;19.95;;;11.30;;
57667;SDS011;43499;52.366;12.912;2022-11-20T03:08:13;20.40;;;10.52;;
57667;SDS011;43499;52.366;12.912;2022-11-20T03:09:14;20.50;;;12.23;;
57667;SDS011;43499;52.366;12.912;2022-11-20T03:10:15;20.85;;;11.63;;
57667;SDS011;43499;52.366;12.912;2022-11-20T03:11:16;19.40;;;11.18;;
57667;SDS011;43499;52.366;12.912;2022-11-20T03:12:17;22.80;;;11.68;;
57667;SDS011;43499;52.366;12.912;2022-11-20T03:13:19;21.70;;;11.57;;
57667;SDS011;43499;52.366;12.912;2022-11-20T03:14:20;21.23;;;11.35;;
57667;SDS011;43499;52.366;12.912;2022-11-20T03:15:24;21.38;;;11.68;;
57667;SDS011;43499;52.366;12.912;2022-11-20T03:16:25;17.45;;;10.52;;
57667;SDS011;43499;52.366;12.912;2022-11-20T03:17:26;23.13;;;11.70;;
57667;SDS011;43499;52.366;12.912;2022-11-20T03:18:28;21.02;;;11.13;;
57667;SDS011;43499;52.366;12.912;2022-11-20T03:19:29;17.38;;;10.27;;
57667;SDS011;43499;52.366;12.912;2022-11-20T03:20:32;19.02;;;10.98;;
57667;SDS011;43499;52.366;12.912;2022-11-20T03:21:34;23.55;;;12.25;;
57667;SDS011;43499;52.366;12.912;2022-11-20T03:22:35;16.77;;;10.05;;
57667;SDS011;43499;52.366;12.912;2022-11-20T03:23:37;27.13;;;12.75;;
57667;SDS011;43499;52.366;12.912;2022-11-20T03:24:38;24.05;;;11.18;;
57667;SDS011;43499;52.366;12.912;2022-11-20T03:25:39;20.63;;;11.43;;
57667;SDS011;43499;52.366;12.912;2022-11-20T03:26:41;17.25;;;11.00;;
57667;SDS011;43499;52.366;12.912;2022-11-20T03:27:42;21.48;;;12.15;;
57667;SDS011;43499;52.366;12.912;2022-11-20T03:28:47;19.88;;;11.57;;
57667;SDS011;43499;52.366;12.912;2022-11-20T03:29:58;18.17;;;10.88;;
57667;SDS011;43499;52.366;12.912;2022-11-20T03:31:04;22.50;;;11.65;;
57667;SDS011;43499;52.366;12.912;2022-11-20T03:33:10;24.45;;;10.70;;
57667;SDS011;43499;52.366;12.912;2022-11-20T03:34:11;21.10;;;11.55;;
57667;SDS011;43499;52.366;12.912;2022-11-20T03:35:12;20.95;;;12.25;;
57667;SDS011;43499;52.366;12.912;2022-11-20T03:36:13;20.80;;;11.15;;
57667;SDS011;43499;52.366;12.912;2022-11-20T03:37:16;20.55;;;11.10;;
57667;SDS011;43499;52.366;12.912;2022-11-20T03:38:17;23.13;;;11.65;;
57667;SDS011;43499;52.366;12.912;2022-11-20T03:39:18;21.90;;;12.23;;
57667;SDS011;43499;52.366;12.912;2022-11-20T03:40:19;21.92;;;11.98;;
57667;SDS011;43499;52.366;12.912;2022-11-20T03:41:21;19.05;;;11.75;;
57667;SDS011;43499;52.366;12.912;2022-11-20T03:42:24;19.85;;;10.65;;
57667;SDS011;43499;52.366;12.912;2022-11-20T03:43:54;21.23;;;12.25;;
57667;SDS011;43499;52.366;12.912;2022-11-20T03:44:56;20.45;;;10.90;;
57667;SDS011;43499;52.366;12.912;2022-11-20T03:45:57;19.85;;;12.07;;
57667;SDS011;43499;52.366;12.912;2022-11-20T03:46:58;19.02;;;11.25;;
57667;SDS011;43499;52.366;12.912;2022-11-20T03:47:59;22.05;;;11.77;;
57667;SDS011;43499;52.366;12.912;2022-11-20T03:49:01;22.48;;;11.38;;
57667;SDS011;43499;52.366;12.912;2022-11-20T03:50:02;24.25;;;12.35;;
57667;SDS011;43499;52.366;12.912;2022-11-20T03:51:14;20.75;;;11.52;;
57667;SDS011;43499;52.366;12.912;2022-11-20T03:52:26;20.65;;;11.38;;
57667;SDS011;43499;52.366;12.912;2022-11-20T03:53:27;21.15;;;11.40;;
57667;SDS011;43499;52.366;12.912;2022-11-20T03:54:29;20.65;;;11.85;;
57667;SDS011;43499;52.366;12.912;2022-11-20T03:55:30;19.35;;;10.82;;
57667;SDS011;43499;52.366;12.912;2022-11-20T03:56:32;17.02;;;10.68;;
57667;SDS011;43499;52.366;12.912;2022-11-20T03:57:35;21.23;;;11.93;;
57667;SDS011;43499;52.366;12.912;2022-11-20T03:58:37;23.25;;;12.55;;
57667;SDS011;43499;52.366;12.912;2022-11-20T03:59:40;19.73;;;11.07;;
57667;SDS011;43499;52.366;12.912;2022-11-20T04:00:42;21.33;;;11.27;;
57667;SDS011;43499;52.366;12.912;2022-11-20T04:01:43;22.13;;;11.27;;
57667;SDS011;43499;52.366;12.912;2022-11-20T04:02:44;21.38;;;12.00;;
57667;SDS011;43499;52.366;12.912;2022-11-20T04:03:45;20.17;;;11.68;;
57667;SDS011;43499;52.366;12.912;2022-11-20T04:04:46;18.40;;;9.95;;
57667;SDS011;43499;52.366;12.912;2022-11-20T04:05:47;18.33;;;10.98;;
57667;SDS011;43499;52.366;12.912;2022-11-20T04:06:48;20.17;;;11.63;;
57667;SDS011;43499;52.366;12.912;2022-11-20T04:07:49;20.42;;;11.50;;
57667;SDS011;43499;52.366;12.912;2022-11-20T04:08:50;22.33;;;12.63;;
57667;SDS011;43499;52.366;12.912;2022-11-20T04:09:52;25.20;;;12.43;;
57667;SDS011;43499;52.366;12.912;2022-11-20T04:10:53;23.35;;;11.98;;
57667;SDS011;43499;52.366;12.912;2022-11-20T04:11:54;21.33;;;12.75;;
57667;SDS011;43499;52.366;12.912;2022-11-20T04:12:55;22.33;;;11.65;;
57667;SDS011;43499;52.366;12.912;2022-11-20T04:14:00;22.10;;;11.63;;
57667;SDS011;43499;52.366;12.912;2022-11-20T04:15:02;19.83;;;11.50;;
57667;SDS011;43499;52.366;12.912;2022-11-20T04:16:04;20.10;;;11.63;;
57667;SDS011;43499;52.366;12.912;2022-11-20T04:17:06;25.52;;;12.35;;
57667;SDS011;43499;52.366;12.912;2022-11-20T04:18:07;22.13;;;12.60;;
57667;SDS011;43499;52.366;12.912;2022-11-20T04:19:12;22.42;;;11.85;;
57667;SDS011;43499;52.366;12.912;2022-11-20T04:20:15;23.48;;;11.95;;
57667;SDS011;43499;52.366;12.912;2022-11-20T04:21:16;24.38;;;11.93;;
57667;SDS011;43499;52.366;12.912;2022-11-20T04:22:17;21.25;;;11.80;;
57667;SDS011;43499;52.366;12.912;2022-11-20T04:23:18;24.60;;;12.60;;
57667;SDS011;43499;52.366;12.912;2022-11-20T04:24:19;18.23;;;11.05;;
57667;SDS011;43499;52.366;12.912;2022-11-20T04:25:20;21.23;;;11.68;;
57667;SDS011;43499;52.366;12.912;2022-11-20T04:26:22;23.48;;;12.57;;
57667;SDS011;43499;52.366;12.912;2022-11-20T04:27:25;24.38;;;11.80;;
57667;SDS011;43499;52.366;12.912;2022-11-20T04:28:26;26.08;;;12.95;;
57667;SDS011;43499;52.366;12.912;2022-11-20T04:29:27;22.52;;;12.35;;
57667;SDS011;43499;52.366;12.912;2022-11-20T04:30:28;22.60;;;11.95;;
57667;SDS011;43499;52.366;12.912;2022-11-20T04:31:30;23.10;;;11.82;;
57667;SDS011;43499;52.366;12.912;2022-11-20T04:32:32;22.63;;;11.93;;
57667;SDS011;43499;52.366;12.912;2022-11-20T04:33:34;25.92;;;12.93;;
57667;SDS011;43499;52.366;12.912;2022-11-20T04:34:36;23.13;;;12.13;;
57667;SDS011;43499;52.366;12.912;2022-11-20T04:35:37;24.63;;;11.40;;
57667;SDS011;43499;52.366;12.912;2022-11-20T04:36:38;22.00;;;12.23;;
57667;SDS011;43499;52.366;12.912;2022-11-20T04:37:39;24.63;;;12.65;;
57667;SDS011;43499;52.366;12.912;2022-11-20T04:38:41;22.40;;;11.60;;
57667;SDS011;43499;52.366;12.912;2022-11-20T04:39:42;22.05;;;12.13;;
57667;SDS011;43499;52.366;12.912;2022-11-20T04:40:43;23.67;;;11.60;;
57667;SDS011;43499;52.366;12.912;2022-11-20T04:41:44;21.00;;;12.05;;
57667;SDS011;43499;52.366;12.912;2022-11-20T04:42:45;23.00;;;11.80;;
57667;SDS011;43499;52.366;12.912;2022-11-20T04:43:46;20.20;;;10.52;;
57667;SDS011;43499;52.366;12.912;2022-11-20T04:44:51;22.38;;;12.23;;
57667;SDS011;43499;52.366;12.912;2022-11-20T04:45:53;23.23;;;11.27;;
57667;SDS011;43499;52.366;12.912;2022-11-20T04:46:55;23.50;;;12.40;;
57667;SDS011;43499;52.366;12.912;2022-11-20T04:47:56;28.33;;;12.57;;
57667;SDS011;43499;52.366;12.912;2022-11-20T04:48:57;23.77;;;12.73;;
57667;SDS011;43499;52.366;12.912;2022-11-20T04:49:58;23.38;;;11.82;;
57667;SDS011;43499;52.366;12.912;2022-11-20T04:51:02;24.13;;;12.30;;
57667;SDS011;43499;52.366;12.912;2022-11-20T04:52:03;25.15;;;13.05;;
57667;SDS011;43499;52.366;12.912;2022-11-20T04:53:04;29.13;;;13.55;;
57667;SDS011;43499;52.366;12.912;2022-11-20T04:54:05;25.75;;;12.93;;
57667;SDS011;43499;52.366;12.912;2022-11-20T04:55:07;25.63;;;12.70;;
57667;SDS011;43499;52.366;12.912;2022-11-20T04:56:09;21.38;;;11.38;;
57667;SDS011;43499;52.366;12.912;2022-11-20T04:57:12;22.15;;;11.82;;
57667;SDS011;43499;52.366;12.912;2022-11-20T04:58:14;24.27;;;12.88;;
57667;SDS011;43499;52.366;12.912;2022-11-20T04:59:16;28.20;;;13.70;;
57667;SDS011;43499;52.366;12.912;2022-11-20T05:00:17;29.27;;;14.43;;
57667;SDS011;43499;52.366;12.912;2022-11-20T05:01:19;22.58;;;12.15;;
57667;SDS011;43499;52.366;12.912;2022-11-20T05:02:24;20.88;;;11.60;;
57667;SDS011;43499;52.366;12.912;2022-11-20T05:03:25;20.42;;;11.05;;
57667;SDS011;43499;52.366;12.912;2022-11-20T05:04:26;22.58;;;12.25;;
57667;SDS011;43499;52.366;12.912;2022-11-20T05:05:27;22.95;;;12.10;;
57667;SDS011;43499;52.366;12.912;2022-11-20T05:06:28;25.75;;;12.18;;
57667;SDS011;43499;52.366;12.912;2022-11-20T05:07:29;23.65;;;12.32;;
57667;SDS011;43499;52.366;12.912;2022-11-20T05:08:31;21.30;;;12.02;;
57667;SDS011;43499;52.366;12.912;2022-11-20T05:09:32;25.55;;;13.43;;
57667;SDS011;43499;52.366;12.912;2022-11-20T05:10:33;22.05;;;12.52;;
57667;SDS011;43499;52.366;12.912;2022-11-20T05:11:34;26.30;;;13.00;;
57667;SDS011;43499;52.366;12.912;2022-11-20T05:12:35;23.02;;;12.77;;
57667;SDS011;43499;52.366;12.912;2022-11-20T05:13:37;22.05;;;12.23;;
57667;SDS011;43499;52.366;12.912;2022-11-20T05:14:38;23.27;;;12.13;;
57667;SDS011;43499;52.366;12.912;2022-11-20T05:15:39;25.58;;;13.43;;
57667;SDS011;43499;52.366;12.912;2022-11-20T05:16:40;20.77;;;12.10;;
57667;SDS011;43499;52.366;12.912;2022-11-20T05:17:48;20.42;;;11.73;;
57667;SDS011;43499;52.366;12.912;2022-11-20T05:18:53;27.15;;;12.52;;
57667;SDS011;43499;52.366;12.912;2022-11-20T05:19:54;23.33;;;12.57;;
57667;SDS011;43499;52.366;12.912;2022-11-20T05:20:56;25.33;;;12.20;;
57667;SDS011;43499;52.366;12.912;2022-11-20T05:21:58;22.92;;;12.63;;
57667;SDS011;43499;52.366;12.912;2022-11-20T05:22:59;20.95;;;11.23;;
57667;SDS011;43499;52.366;12.912;2022-11-20T05:24:00;22.48;;;11.93;;
57667;SDS011;43499;52.366;12.912;2022-11-20T05:25:01;23.50;;;11.68;;
57667;SDS011;43499;52.366;12.912;2022-11-20T05:26:03;23.30;;;11.32;;
57667;SDS011;43499;52.366;12.912;2022-11-20T05:27:05;24.33;;;11.77;;
57667;SDS011;43499;52.366;12.912;2022-11-20T05:28:06;24.23;;;12.98;;
57667;SDS011;43499;52.366;12.912;2022-11-20T05:29:09;21.27;;;12.05;;
57667;SDS011;43499;52.366;12.912;2022-11-20T05:30:13;18.52;;;11.25;;
57667;SDS011;43499;52.366;12.912;2022-11-20T05:31:15;26.58;;;12.43;;
57667;SDS011;43499;52.366;12.912;2022-11-20T05:32:18;24.45;;;12.38;;
57667;SDS011;43499;52.366;12.912;2022-11-20T05:33:19;21.40;;;12.07;;
57667;SDS011;43499;52.366;12.912;2022-11-20T05:34:21;18.65;;;10.32;;
57667;SDS011;43499;52.366;12.912;2022-11-20T05:35:22;24.95;;;12.82;;
57667;SDS011;43499;52.366;12.912;2022-11-20T05:36:23;25.80;;;12.32;;
57667;SDS011;43499;52.366;12.912;2022-11-20T05:37:24;19.50;;;12.20;;
57667;SDS011;43499;52.366;12.912;2022-11-20T05:38:25;19.35;;;10.88;;
57667;SDS011;43499;52.366;12.912;2022-11-20T05:39:26;25.33;;;13.32;;
57667;SDS011;43499;52.366;12.912;2022-11-20T05:40:27;24.33;;;12.70;;
57667;SDS011;43499;52.366;12.912;2022-11-20T05:41:28;19.05;;;11.05;;
57667;SDS011;43499;52.366;12.912;2022-11-20T05:42:30;23.25;;;12.45;;
57667;SDS011;43499;52.366;12.912;2022-11-20T05:43:35;21.92;;;11.52;;
57667;SDS011;43499;52.366;12.912;2022-11-20T05:44:36;23.50;;;12.23;;
57667;SDS011;43499;52.366;12.912;2022-11-20T05:45:37;21.08;;;11.80;;
57667;SDS011;43499;52.366;12.912;2022-11-20T05:46:38;22.08;;;12.82;;
57667;SDS011;43499;52.366;12.912;2022-11-20T05:47:39;28.58;;;13.05;;
57667;SDS011;43499;52.366;12.912;2022-11-20T05:48:41;23.30;;;12.23;;
57667;SDS011;43499;52.366;12.912;2022-11-20T05:49:43;21.40;;;11.18;;
57667;SDS011;43499;52.366;12.912;2022-11-20T05:50:44;22.77;;;12.85;;
57667;SDS011;43499;52.366;12.912;2022-11-20T05:51:45;23.80;;;12.70;;
57667;SDS011;43499;52.366;12.912;2022-11-20T05:52:46;23.15;;;12.55;;
57667;SDS011;43499;52.366;12.912;2022-11-20T05:53:47;19.23;;;10.73;;
57667;SDS011;43499;52.366;12.912;2022-11-20T05:54:48;26.77;;;11.98;;
57667;SDS011;43499;52.366;12.912;2022-11-20T05:55:56;22.70;;;12.80;;
57667;SDS011;43499;52.366;12.912;2022-11-20T05:57:01;21.50;;;11.55;;
57667;SDS011;43499;52.366;12.912;2022-11-20T05:58:02;28.77;;;12.35;;
57667;SDS011;43499;52.366;12.912;2022-11-20T05:59:03;25.38;;;13.43;;
57667;SDS011;43499;52.366;12.912;2022-11-20T06:00:04;26.95;;;12.43;;
57667;SDS011;43499;52.366;12.912;2022-11-20T06:01:27;22.27;;;12.52;;
57667;SDS011;43499;52.366;12.912;2022-11-20T06:02:27;21.90;;;12.18;;
57667;SDS011;43499;52.366;12.912;2022-11-20T06:03:28;24.50;;;12.85;;
57667;SDS011;43499;52.366;12.912;2022-11-20T06:04:29;23.85;;;12.35;;
57667;SDS011;43499;52.366;12.912;2022-11-20T06:05:30;22.20;;;12.20;;
57667;SDS011;43499;52.366;12.912;2022-11-20T06:06:31;23.60;;;12.30;;
57667;SDS011;43499;52.366;12.912;2022-11-20T06:07:33;20.67;;;12.00;;
57667;SDS011;43499;52.366;12.912;2022-11-20T06:08:34;20.85;;;12.27;;
57667;SDS011;43499;52.366;12.912;2022-11-20T06:09:35;25.70;;;12.73;;